sensor_id;sensor_type;location;lat;lon;timestamp;P1;durP1;ratioP1;P2;durP2;ratioP2
34359;SDS011;20624;55.870;26.506;2023-11-19T00:00:22;7.72;;;3.72;;
34359;SDS011;20624;55.870;26.506;2023-11-19T00:02:50;6.60;;;3.05;;
34359;SDS011;20624;55.870;26.506;2023-11-19T00:05:18;7.03;;;3.55;;
34359;SDS011;20624;55.870;26.506;2023-11-19T00:07:47;9.35;;;3.30;;
34359;SDS011;20624;55.870;26.506;2023-11-19T00:10:15;7.28;;;3.15;;
34359;SDS011;20624;55.870;26.506;2023-11-19T00:12:47;5.18;;;2.17;;
34359;SDS011;20624;55.870;26.506;2023-11-19T00:15:16;7.55;;;2.38;;
34359;SDS011;20624;55.870;26.506;2023-11-19T00:17:46;6.10;;;2.45;;
34359;SDS011;20624;55.870;26.506;2023-11-19T00:20:18;5.65;;;2.67;;
34359;SDS011;20624;55.870;26.506;2023-11-19T00:22:48;6.80;;;2.67;;
34359;SDS011;20624;55.870;26.506;2023-11-19T00:25:20;5.35;;;2.75;;
34359;SDS011;20624;55.870;26.506;2023-11-19T00:27:52;7.82;;;3.13;;
34359;SDS011;20624;55.870;26.506;2023-11-19T00:30:20;5.53;;;2.83;;
34359;SDS011;20624;55.870;26.506;2023-11-19T00:32:48;7.93;;;3.15;;
34359;SDS011;20624;55.870;26.506;2023-11-19T00:35:16;5.72;;;2.53;;
34359;SDS011;20624;55.870;26.506;2023-11-19T00:37:44;8.70;;;2.85;;
34359;SDS011;20624;55.870;26.506;2023-11-19T00:40:14;6.03;;;2.75;;
34359;SDS011;20624;55.870;26.506;2023-11-19T00:42:45;5.60;;;2.20;;
34359;SDS011;20624;55.870;26.506;2023-11-19T00:45:13;5.95;;;2.50;;
34359;SDS011;20624;55.870;26.506;2023-11-19T00:47:41;7.18;;;2.67;;
34359;SDS011;20624;55.870;26.506;2023-11-19T00:50:10;4.32;;;2.25;;
34359;SDS011;20624;55.870;26.506;2023-11-19T00:55:07;7.57;;;3.22;;
34359;SDS011;20624;55.870;26.506;2023-11-19T00:57:35;9.90;;;3.88;;
34359;SDS011;20624;55.870;26.506;2023-11-19T01:00:06;6.68;;;2.90;;
34359;SDS011;20624;55.870;26.506;2023-11-19T01:02:42;7.78;;;2.88;;
34359;SDS011;20624;55.870;26.506;2023-11-19T01:05:10;4.22;;;2.28;;
34359;SDS011;20624;55.870;26.506;2023-11-19T01:07:41;8.10;;;2.67;;
34359;SDS011;20624;55.870;26.506;2023-11-19T01:10:10;5.05;;;2.28;;
34359;SDS011;20624;55.870;26.506;2023-11-19T01:12:38;5.28;;;2.35;;
34359;SDS011;20624;55.870;26.506;2023-11-19T01:15:06;4.88;;;2.28;;
34359;SDS011;20624;55.870;26.506;2023-11-19T01:17:38;5.85;;;2.33;;
34359;SDS011;20624;55.870;26.506;2023-11-19T01:20:18;4.95;;;2.20;;
34359;SDS011;20624;55.870;26.506;2023-11-19T01:22:47;5.10;;;2.38;;
34359;SDS011;20624;55.870;26.506;2023-11-19T01:25:16;5.45;;;2.15;;
34359;SDS011;20624;55.870;26.506;2023-11-19T01:27:44;6.00;;;2.13;;
34359;SDS011;20624;55.870;26.506;2023-11-19T01:30:12;3.63;;;1.90;;
34359;SDS011;20624;55.870;26.506;2023-11-19T01:32:40;7.07;;;2.72;;
34359;SDS011;20624;55.870;26.506;2023-11-19T01:35:08;4.75;;;2.50;;
34359;SDS011;20624;55.870;26.506;2023-11-19T01:37:36;7.65;;;2.92;;
34359;SDS011;20624;55.870;26.506;2023-11-19T01:40:04;5.72;;;2.38;;
34359;SDS011;20624;55.870;26.506;2023-11-19T01:45:05;5.18;;;2.47;;
34359;SDS011;20624;55.870;26.506;2023-11-19T01:47:37;8.32;;;2.72;;
34359;SDS011;20624;55.870;26.506;2023-11-19T01:50:07;6.50;;;2.97;;
34359;SDS011;20624;55.870;26.506;2023-11-19T01:52:35;8.85;;;3.20;;
34359;SDS011;20624;55.870;26.506;2023-11-19T01:55:04;4.55;;;2.03;;
34359;SDS011;20624;55.870;26.506;2023-11-19T01:57:34;9.30;;;3.67;;
34359;SDS011;20624;55.870;26.506;2023-11-19T02:00:05;8.45;;;2.97;;
34359;SDS011;20624;55.870;26.506;2023-11-19T02:02:33;11.30;;;2.97;;
34359;SDS011;20624;55.870;26.506;2023-11-19T02:05:02;4.60;;;2.17;;
34359;SDS011;20624;55.870;26.506;2023-11-19T02:07:30;6.88;;;2.45;;
34359;SDS011;20624;55.870;26.506;2023-11-19T02:09:58;4.43;;;1.98;;
34359;SDS011;20624;55.870;26.506;2023-11-19T02:12:29;5.78;;;2.83;;
34359;SDS011;20624;55.870;26.506;2023-11-19T02:15:00;5.15;;;2.50;;
34359;SDS011;20624;55.870;26.506;2023-11-19T02:17:29;6.05;;;2.30;;
34359;SDS011;20624;55.870;26.506;2023-11-19T02:20:01;4.68;;;2.42;;
34359;SDS011;20624;55.870;26.506;2023-11-19T02:22:29;9.00;;;2.95;;
34359;SDS011;20624;55.870;26.506;2023-11-19T02:25:01;4.63;;;2.50;;
34359;SDS011;20624;55.870;26.506;2023-11-19T02:30:24;6.50;;;2.85;;
34359;SDS011;20624;55.870;26.506;2023-11-19T02:32:55;6.72;;;2.70;;
34359;SDS011;20624;55.870;26.506;2023-11-19T02:35:29;6.90;;;2.47;;
34359;SDS011;20624;55.870;26.506;2023-11-19T02:37:58;6.97;;;2.70;;
34359;SDS011;20624;55.870;26.506;2023-11-19T02:40:27;7.18;;;2.50;;
34359;SDS011;20624;55.870;26.506;2023-11-19T02:42:55;6.20;;;2.72;;
34359;SDS011;20624;55.870;26.506;2023-11-19T02:45:24;7.18;;;2.80;;
34359;SDS011;20624;55.870;26.506;2023-11-19T02:47:53;4.68;;;2.72;;
34359;SDS011;20624;55.870;26.506;2023-11-19T02:50:21;4.75;;;2.88;;
34359;SDS011;20624;55.870;26.506;2023-11-19T02:52:55;5.68;;;2.85;;
34359;SDS011;20624;55.870;26.506;2023-11-19T02:55:23;4.95;;;2.40;;
34359;SDS011;20624;55.870;26.506;2023-11-19T02:57:52;7.53;;;3.05;;
34359;SDS011;20624;55.870;26.506;2023-11-19T03:00:21;4.35;;;2.45;;
34359;SDS011;20624;55.870;26.506;2023-11-19T03:03:02;6.10;;;2.80;;
34359;SDS011;20624;55.870;26.506;2023-11-19T03:08:15;4.93;;;2.00;;
34359;SDS011;20624;55.870;26.506;2023-11-19T03:10:46;4.82;;;2.38;;
34359;SDS011;20624;55.870;26.506;2023-11-19T03:13:15;4.22;;;2.13;;
34359;SDS011;20624;55.870;26.506;2023-11-19T03:15:46;5.53;;;2.10;;
34359;SDS011;20624;55.870;26.506;2023-11-19T03:18:14;5.30;;;2.10;;
34359;SDS011;20624;55.870;26.506;2023-11-19T03:20:42;5.65;;;2.22;;
34359;SDS011;20624;55.870;26.506;2023-11-19T03:23:10;6.68;;;2.42;;
34359;SDS011;20624;55.870;26.506;2023-11-19T03:25:39;5.90;;;2.17;;
34359;SDS011;20624;55.870;26.506;2023-11-19T03:28:06;9.80;;;2.50;;
34359;SDS011;20624;55.870;26.506;2023-11-19T03:30:34;4.45;;;2.10;;
34359;SDS011;20624;55.870;26.506;2023-11-19T03:33:03;6.50;;;2.15;;
34359;SDS011;20624;55.870;26.506;2023-11-19T03:35:31;4.57;;;1.65;;
34359;SDS011;20624;55.870;26.506;2023-11-19T03:37:59;4.25;;;1.77;;
34359;SDS011;20624;55.870;26.506;2023-11-19T03:40:28;4.15;;;2.20;;
34359;SDS011;20624;55.870;26.506;2023-11-19T03:42:56;4.20;;;1.70;;
34359;SDS011;20624;55.870;26.506;2023-11-19T03:45:27;3.28;;;1.90;;
34359;SDS011;20624;55.870;26.506;2023-11-19T03:47:55;3.70;;;1.67;;
34359;SDS011;20624;55.870;26.506;2023-11-19T03:50:23;2.97;;;1.50;;
34359;SDS011;20624;55.870;26.506;2023-11-19T03:52:52;4.70;;;1.67;;
34359;SDS011;20624;55.870;26.506;2023-11-19T03:55:20;2.95;;;1.45;;
34359;SDS011;20624;55.870;26.506;2023-11-19T03:57:48;4.70;;;1.65;;
34359;SDS011;20624;55.870;26.506;2023-11-19T04:00:16;5.72;;;1.92;;
34359;SDS011;20624;55.870;26.506;2023-11-19T04:05:15;8.00;;;2.65;;
34359;SDS011;20624;55.870;26.506;2023-11-19T04:07:45;14.00;;;3.30;;
34359;SDS011;20624;55.870;26.506;2023-11-19T04:10:13;9.00;;;3.60;;
34359;SDS011;20624;55.870;26.506;2023-11-19T04:12:43;10.00;;;3.90;;
34359;SDS011;20624;55.870;26.506;2023-11-19T04:15:11;7.13;;;3.70;;
34359;SDS011;20624;55.870;26.506;2023-11-19T04:17:39;6.35;;;3.17;;
34359;SDS011;20624;55.870;26.506;2023-11-19T04:20:07;6.95;;;3.60;;
34359;SDS011;20624;55.870;26.506;2023-11-19T04:22:39;9.65;;;3.95;;
34359;SDS011;20624;55.870;26.506;2023-11-19T04:25:07;8.10;;;4.03;;
34359;SDS011;20624;55.870;26.506;2023-11-19T04:27:36;7.68;;;3.80;;
34359;SDS011;20624;55.870;26.506;2023-11-19T04:30:04;4.53;;;2.80;;
34359;SDS011;20624;55.870;26.506;2023-11-19T04:32:36;8.38;;;3.55;;
34359;SDS011;20624;55.870;26.506;2023-11-19T04:35:04;5.85;;;2.00;;
34359;SDS011;20624;55.870;26.506;2023-11-19T04:37:33;9.30;;;3.03;;
34359;SDS011;20624;55.870;26.506;2023-11-19T04:40:01;5.55;;;1.90;;
34359;SDS011;20624;55.870;26.506;2023-11-19T04:42:29;6.50;;;2.10;;
34359;SDS011;20624;55.870;26.506;2023-11-19T04:44:58;5.72;;;2.67;;
34359;SDS011;20624;55.870;26.506;2023-11-19T04:47:26;5.63;;;2.72;;
34359;SDS011;20624;55.870;26.506;2023-11-19T04:49:54;5.05;;;2.45;;
34359;SDS011;20624;55.870;26.506;2023-11-19T04:52:23;4.10;;;2.38;;
34359;SDS011;20624;55.870;26.506;2023-11-19T04:54:51;9.48;;;3.20;;
34359;SDS011;20624;55.870;26.506;2023-11-19T04:57:20;4.55;;;1.92;;
34359;SDS011;20624;55.870;26.506;2023-11-19T04:59:47;6.43;;;2.05;;
34359;SDS011;20624;55.870;26.506;2023-11-19T05:02:16;5.18;;;2.42;;
34359;SDS011;20624;55.870;26.506;2023-11-19T05:04:44;6.57;;;2.75;;
34359;SDS011;20624;55.870;26.506;2023-11-19T05:07:13;5.72;;;2.83;;
34359;SDS011;20624;55.870;26.506;2023-11-19T05:09:41;6.97;;;3.03;;
34359;SDS011;20624;55.870;26.506;2023-11-19T05:12:10;4.93;;;2.70;;
34359;SDS011;20624;55.870;26.506;2023-11-19T05:14:39;5.80;;;3.25;;
34359;SDS011;20624;55.870;26.506;2023-11-19T05:17:06;8.60;;;3.65;;
34359;SDS011;20624;55.870;26.506;2023-11-19T05:19:35;6.30;;;2.90;;
34359;SDS011;20624;55.870;26.506;2023-11-19T05:22:03;4.80;;;3.03;;
34359;SDS011;20624;55.870;26.506;2023-11-19T05:24:31;5.85;;;2.95;;
34359;SDS011;20624;55.870;26.506;2023-11-19T05:27:00;6.70;;;3.05;;
34359;SDS011;20624;55.870;26.506;2023-11-19T05:29:28;4.43;;;2.80;;
34359;SDS011;20624;55.870;26.506;2023-11-19T05:31:56;6.15;;;2.90;;
34359;SDS011;20624;55.870;26.506;2023-11-19T05:34:24;10.80;;;4.10;;
34359;SDS011;20624;55.870;26.506;2023-11-19T05:36:52;11.45;;;5.50;;
34359;SDS011;20624;55.870;26.506;2023-11-19T05:39:21;12.18;;;6.40;;
34359;SDS011;20624;55.870;26.506;2023-11-19T05:41:49;10.15;;;5.65;;
34359;SDS011;20624;55.870;26.506;2023-11-19T05:44:17;17.52;;;8.32;;
34359;SDS011;20624;55.870;26.506;2023-11-19T05:46:45;20.58;;;9.10;;
34359;SDS011;20624;55.870;26.506;2023-11-19T05:49:14;16.25;;;7.57;;
34359;SDS011;20624;55.870;26.506;2023-11-19T05:51:43;15.85;;;7.13;;
34359;SDS011;20624;55.870;26.506;2023-11-19T05:54:11;11.40;;;5.03;;
34359;SDS011;20624;55.870;26.506;2023-11-19T05:56:40;15.75;;;5.35;;
34359;SDS011;20624;55.870;26.506;2023-11-19T05:59:08;7.22;;;3.40;;
34359;SDS011;20624;55.870;26.506;2023-11-19T06:01:42;5.63;;;2.22;;
34359;SDS011;20624;55.870;26.506;2023-11-19T06:04:10;6.38;;;3.08;;
34359;SDS011;20624;55.870;26.506;2023-11-19T06:06:38;11.57;;;5.05;;
34359;SDS011;20624;55.870;26.506;2023-11-19T06:09:07;11.93;;;4.72;;
34359;SDS011;20624;55.870;26.506;2023-11-19T06:11:39;9.35;;;3.85;;
34359;SDS011;20624;55.870;26.506;2023-11-19T06:14:07;7.55;;;3.50;;
34359;SDS011;20624;55.870;26.506;2023-11-19T06:16:35;8.55;;;2.83;;
34359;SDS011;20624;55.870;26.506;2023-11-19T06:19:03;14.40;;;6.35;;
34359;SDS011;20624;55.870;26.506;2023-11-19T06:21:31;18.60;;;8.30;;
34359;SDS011;20624;55.870;26.506;2023-11-19T06:24:00;12.38;;;5.35;;
34359;SDS011;20624;55.870;26.506;2023-11-19T06:26:29;11.13;;;4.47;;
34359;SDS011;20624;55.870;26.506;2023-11-19T06:28:57;8.00;;;3.30;;
34359;SDS011;20624;55.870;26.506;2023-11-19T06:31:24;20.23;;;8.60;;
34359;SDS011;20624;55.870;26.506;2023-11-19T06:33:52;13.55;;;6.47;;
34359;SDS011;20624;55.870;26.506;2023-11-19T06:36:20;12.38;;;5.40;;
34359;SDS011;20624;55.870;26.506;2023-11-19T06:38:48;10.73;;;5.28;;
34359;SDS011;20624;55.870;26.506;2023-11-19T06:41:17;9.55;;;5.53;;
34359;SDS011;20624;55.870;26.506;2023-11-19T06:43:45;12.95;;;5.07;;
34359;SDS011;20624;55.870;26.506;2023-11-19T06:46:16;8.68;;;3.92;;
34359;SDS011;20624;55.870;26.506;2023-11-19T06:48:44;13.30;;;6.45;;
34359;SDS011;20624;55.870;26.506;2023-11-19T06:51:14;19.75;;;7.95;;
34359;SDS011;20624;55.870;26.506;2023-11-19T06:53:42;29.65;;;12.63;;
34359;SDS011;20624;55.870;26.506;2023-11-19T06:56:21;19.13;;;7.72;;
34359;SDS011;20624;55.870;26.506;2023-11-19T06:58:49;10.60;;;5.38;;
34359;SDS011;20624;55.870;26.506;2023-11-19T07:01:17;14.13;;;6.65;;
34359;SDS011;20624;55.870;26.506;2023-11-19T07:03:46;19.50;;;7.78;;
34359;SDS011;20624;55.870;26.506;2023-11-19T07:06:15;19.80;;;9.38;;
34359;SDS011;20624;55.870;26.506;2023-11-19T07:08:43;24.48;;;11.43;;
34359;SDS011;20624;55.870;26.506;2023-11-19T07:11:14;32.85;;;17.15;;
34359;SDS011;20624;55.870;26.506;2023-11-19T07:13:43;32.80;;;15.68;;
34359;SDS011;20624;55.870;26.506;2023-11-19T07:16:14;29.70;;;13.88;;
34359;SDS011;20624;55.870;26.506;2023-11-19T07:18:41;29.02;;;12.45;;
34359;SDS011;20624;55.870;26.506;2023-11-19T07:21:10;20.10;;;9.68;;
34359;SDS011;20624;55.870;26.506;2023-11-19T07:23:38;16.23;;;8.73;;
34359;SDS011;20624;55.870;26.506;2023-11-19T07:26:06;20.77;;;9.70;;
34359;SDS011;20624;55.870;26.506;2023-11-19T07:28:37;17.23;;;10.15;;
34359;SDS011;20624;55.870;26.506;2023-11-19T07:31:08;17.25;;;8.95;;
34359;SDS011;20624;55.870;26.506;2023-11-19T07:33:36;22.17;;;10.73;;
34359;SDS011;20624;55.870;26.506;2023-11-19T07:36:04;12.32;;;7.28;;
34359;SDS011;20624;55.870;26.506;2023-11-19T07:38:32;24.17;;;10.00;;
34359;SDS011;20624;55.870;26.506;2023-11-19T07:41:01;24.63;;;12.02;;
34359;SDS011;20624;55.870;26.506;2023-11-19T07:43:29;29.38;;;13.55;;
34359;SDS011;20624;55.870;26.506;2023-11-19T07:45:57;18.75;;;9.52;;
34359;SDS011;20624;55.870;26.506;2023-11-19T07:48:30;13.13;;;6.47;;
34359;SDS011;20624;55.870;26.506;2023-11-19T07:50:58;17.10;;;8.85;;
34359;SDS011;20624;55.870;26.506;2023-11-19T07:53:27;22.92;;;11.23;;
34359;SDS011;20624;55.870;26.506;2023-11-19T07:55:55;25.58;;;11.00;;
34359;SDS011;20624;55.870;26.506;2023-11-19T07:58:23;17.95;;;8.95;;
34359;SDS011;20624;55.870;26.506;2023-11-19T08:00:51;13.10;;;5.65;;
34359;SDS011;20624;55.870;26.506;2023-11-19T08:03:19;12.55;;;4.63;;
34359;SDS011;20624;55.870;26.506;2023-11-19T08:05:49;10.23;;;4.72;;
34359;SDS011;20624;55.870;26.506;2023-11-19T08:08:17;21.00;;;6.75;;
34359;SDS011;20624;55.870;26.506;2023-11-19T08:10:45;14.05;;;6.88;;
34359;SDS011;20624;55.870;26.506;2023-11-19T08:13:14;19.17;;;8.25;;
34359;SDS011;20624;55.870;26.506;2023-11-19T08:15:45;21.58;;;7.93;;
34359;SDS011;20624;55.870;26.506;2023-11-19T08:18:13;19.35;;;7.63;;
34359;SDS011;20624;55.870;26.506;2023-11-19T08:20:41;13.55;;;6.28;;
34359;SDS011;20624;55.870;26.506;2023-11-19T08:23:11;16.95;;;7.95;;
34359;SDS011;20624;55.870;26.506;2023-11-19T08:25:39;19.65;;;8.85;;
34359;SDS011;20624;55.870;26.506;2023-11-19T08:28:07;13.38;;;6.30;;
34359;SDS011;20624;55.870;26.506;2023-11-19T08:30:35;16.52;;;6.88;;
34359;SDS011;20624;55.870;26.506;2023-11-19T08:33:04;12.60;;;6.05;;
34359;SDS011;20624;55.870;26.506;2023-11-19T08:35:33;12.05;;;7.00;;
34359;SDS011;20624;55.870;26.506;2023-11-19T08:38:01;17.13;;;6.95;;
34359;SDS011;20624;55.870;26.506;2023-11-19T08:40:29;15.25;;;6.82;;
34359;SDS011;20624;55.870;26.506;2023-11-19T08:42:58;11.27;;;5.82;;
34359;SDS011;20624;55.870;26.506;2023-11-19T08:45:26;11.90;;;5.32;;
34359;SDS011;20624;55.870;26.506;2023-11-19T08:47:54;12.35;;;4.43;;
34359;SDS011;20624;55.870;26.506;2023-11-19T08:50:22;6.68;;;3.90;;
34359;SDS011;20624;55.870;26.506;2023-11-19T08:52:52;8.98;;;4.32;;
34359;SDS011;20624;55.870;26.506;2023-11-19T08:55:20;12.63;;;5.25;;
34359;SDS011;20624;55.870;26.506;2023-11-19T08:57:48;11.00;;;4.93;;
34359;SDS011;20624;55.870;26.506;2023-11-19T09:00:16;7.70;;;3.85;;
34359;SDS011;20624;55.870;26.506;2023-11-19T09:02:44;9.32;;;3.50;;
34359;SDS011;20624;55.870;26.506;2023-11-19T09:05:12;10.35;;;4.40;;
34359;SDS011;20624;55.870;26.506;2023-11-19T09:07:40;11.60;;;4.57;;
34359;SDS011;20624;55.870;26.506;2023-11-19T09:10:08;10.48;;;3.95;;
34359;SDS011;20624;55.870;26.506;2023-11-19T09:12:38;11.88;;;4.70;;
34359;SDS011;20624;55.870;26.506;2023-11-19T09:15:06;9.82;;;4.47;;
34359;SDS011;20624;55.870;26.506;2023-11-19T09:17:34;10.75;;;3.80;;
34359;SDS011;20624;55.870;26.506;2023-11-19T09:20:02;12.32;;;5.07;;
34359;SDS011;20624;55.870;26.506;2023-11-19T09:22:30;11.77;;;5.20;;
34359;SDS011;20624;55.870;26.506;2023-11-19T09:24:58;10.02;;;5.07;;
34359;SDS011;20624;55.870;26.506;2023-11-19T09:27:27;10.98;;;5.57;;
34359;SDS011;20624;55.870;26.506;2023-11-19T09:29:54;9.43;;;5.22;;
34359;SDS011;20624;55.870;26.506;2023-11-19T09:32:24;10.35;;;4.78;;
34359;SDS011;20624;55.870;26.506;2023-11-19T09:34:53;10.88;;;5.43;;
34359;SDS011;20624;55.870;26.506;2023-11-19T09:37:20;10.45;;;5.10;;
34359;SDS011;20624;55.870;26.506;2023-11-19T09:39:48;13.23;;;6.75;;
34359;SDS011;20624;55.870;26.506;2023-11-19T09:42:16;14.63;;;7.35;;
34359;SDS011;20624;55.870;26.506;2023-11-19T09:44:44;16.95;;;6.65;;
34359;SDS011;20624;55.870;26.506;2023-11-19T09:47:12;17.10;;;7.13;;
34359;SDS011;20624;55.870;26.506;2023-11-19T09:49:42;15.05;;;7.35;;
34359;SDS011;20624;55.870;26.506;2023-11-19T09:52:12;15.60;;;5.55;;
34359;SDS011;20624;55.870;26.506;2023-11-19T09:54:40;13.27;;;5.68;;
34359;SDS011;20624;55.870;26.506;2023-11-19T09:57:08;17.90;;;6.75;;
34359;SDS011;20624;55.870;26.506;2023-11-19T09:59:37;13.35;;;5.72;;
34359;SDS011;20624;55.870;26.506;2023-11-19T10:02:06;13.55;;;6.13;;
34359;SDS011;20624;55.870;26.506;2023-11-19T10:04:37;19.15;;;8.38;;
34359;SDS011;20624;55.870;26.506;2023-11-19T10:07:05;13.00;;;6.68;;
34359;SDS011;20624;55.870;26.506;2023-11-19T10:09:34;17.38;;;7.43;;
34359;SDS011;20624;55.870;26.506;2023-11-19T10:12:02;12.10;;;6.35;;
34359;SDS011;20624;55.870;26.506;2023-11-19T10:14:30;12.55;;;5.75;;
34359;SDS011;20624;55.870;26.506;2023-11-19T10:17:01;7.78;;;4.68;;
34359;SDS011;20624;55.870;26.506;2023-11-19T10:19:31;15.68;;;6.45;;
34359;SDS011;20624;55.870;26.506;2023-11-19T10:22:05;11.43;;;4.50;;
34359;SDS011;20624;55.870;26.506;2023-11-19T10:24:33;7.93;;;4.38;;
34359;SDS011;20624;55.870;26.506;2023-11-19T10:27:06;6.32;;;3.15;;
34359;SDS011;20624;55.870;26.506;2023-11-19T10:29:38;10.77;;;3.90;;
34359;SDS011;20624;55.870;26.506;2023-11-19T10:32:06;7.40;;;3.83;;
34359;SDS011;20624;55.870;26.506;2023-11-19T10:34:52;11.95;;;4.38;;
34359;SDS011;20624;55.870;26.506;2023-11-19T10:37:27;10.15;;;4.53;;
34359;SDS011;20624;55.870;26.506;2023-11-19T10:39:59;10.85;;;3.72;;
34359;SDS011;20624;55.870;26.506;2023-11-19T10:42:27;6.40;;;3.35;;
34359;SDS011;20624;55.870;26.506;2023-11-19T10:44:55;6.32;;;3.15;;
34359;SDS011;20624;55.870;26.506;2023-11-19T10:47:23;5.90;;;3.75;;
34359;SDS011;20624;55.870;26.506;2023-11-19T10:49:55;14.90;;;5.30;;
34359;SDS011;20624;55.870;26.506;2023-11-19T10:52:24;9.27;;;4.55;;
34359;SDS011;20624;55.870;26.506;2023-11-19T10:54:54;11.40;;;4.70;;
34359;SDS011;20624;55.870;26.506;2023-11-19T10:57:26;14.10;;;6.45;;
34359;SDS011;20624;55.870;26.506;2023-11-19T11:00:00;16.90;;;7.38;;
34359;SDS011;20624;55.870;26.506;2023-11-19T11:02:40;13.10;;;5.95;;
34359;SDS011;20624;55.870;26.506;2023-11-19T11:05:09;12.45;;;5.78;;
34359;SDS011;20624;55.870;26.506;2023-11-19T11:07:37;11.85;;;5.13;;
34359;SDS011;20624;55.870;26.506;2023-11-19T11:10:07;13.98;;;4.95;;
34359;SDS011;20624;55.870;26.506;2023-11-19T11:12:36;15.35;;;6.10;;
34359;SDS011;20624;55.870;26.506;2023-11-19T11:15:06;9.20;;;4.75;;
34359;SDS011;20624;55.870;26.506;2023-11-19T11:17:34;13.20;;;4.32;;
34359;SDS011;20624;55.870;26.506;2023-11-19T11:20:04;8.20;;;4.03;;
34359;SDS011;20624;55.870;26.506;2023-11-19T11:22:34;7.97;;;4.05;;
34359;SDS011;20624;55.870;26.506;2023-11-19T11:25:19;14.45;;;6.68;;
34359;SDS011;20624;55.870;26.506;2023-11-19T11:36:31;15.25;;;6.93;;
34359;SDS011;20624;55.870;26.506;2023-11-19T11:39:02;13.13;;;7.05;;
34359;SDS011;20624;55.870;26.506;2023-11-19T11:41:34;14.65;;;7.43;;
34359;SDS011;20624;55.870;26.506;2023-11-19T11:44:02;16.33;;;7.95;;
34359;SDS011;20624;55.870;26.506;2023-11-19T11:49:05;14.70;;;5.78;;
34359;SDS011;20624;55.870;26.506;2023-11-19T11:59:47;10.23;;;4.93;;
34359;SDS011;20624;55.870;26.506;2023-11-19T12:02:16;14.13;;;5.45;;
34359;SDS011;20624;55.870;26.506;2023-11-19T12:04:52;9.52;;;4.10;;
34359;SDS011;20624;55.870;26.506;2023-11-19T12:07:21;8.57;;;3.70;;
34359;SDS011;20624;55.870;26.506;2023-11-19T12:09:53;10.25;;;4.43;;
34359;SDS011;20624;55.870;26.506;2023-11-19T12:12:35;13.35;;;4.78;;
34359;SDS011;20624;55.870;26.506;2023-11-19T12:15:05;7.97;;;4.05;;
34359;SDS011;20624;55.870;26.506;2023-11-19T12:20:05;9.10;;;4.88;;
34359;SDS011;20624;55.870;26.506;2023-11-19T12:22:38;11.10;;;4.50;;
34359;SDS011;20624;55.870;26.506;2023-11-19T12:25:06;9.88;;;3.85;;
34359;SDS011;20624;55.870;26.506;2023-11-19T12:27:36;10.10;;;4.90;;
34359;SDS011;20624;55.870;26.506;2023-11-19T12:30:04;8.40;;;4.18;;
34359;SDS011;20624;55.870;26.506;2023-11-19T12:32:42;8.48;;;4.47;;
34359;SDS011;20624;55.870;26.506;2023-11-19T12:35:11;9.32;;;4.18;;
34359;SDS011;20624;55.870;26.506;2023-11-19T12:37:43;10.43;;;4.38;;
34359;SDS011;20624;55.870;26.506;2023-11-19T12:40:14;9.05;;;3.80;;
34359;SDS011;20624;55.870;26.506;2023-11-19T12:42:43;9.45;;;3.83;;
34359;SDS011;20624;55.870;26.506;2023-11-19T12:45:11;8.63;;;3.83;;
34359;SDS011;20624;55.870;26.506;2023-11-19T12:47:42;8.48;;;4.05;;
34359;SDS011;20624;55.870;26.506;2023-11-19T12:50:10;7.40;;;3.55;;
34359;SDS011;20624;55.870;26.506;2023-11-19T12:52:41;8.93;;;3.97;;
34359;SDS011;20624;55.870;26.506;2023-11-19T12:55:25;8.50;;;4.32;;
34359;SDS011;20624;55.870;26.506;2023-11-19T12:57:56;9.18;;;4.13;;
34359;SDS011;20624;55.870;26.506;2023-11-19T13:00:26;8.15;;;4.13;;
34359;SDS011;20624;55.870;26.506;2023-11-19T13:02:55;5.75;;;3.45;;
34359;SDS011;20624;55.870;26.506;2023-11-19T13:05:24;7.60;;;4.43;;
34359;SDS011;20624;55.870;26.506;2023-11-19T13:08:04;7.95;;;3.90;;
34359;SDS011;20624;55.870;26.506;2023-11-19T13:10:33;7.18;;;4.32;;
34359;SDS011;20624;55.870;26.506;2023-11-19T13:13:05;9.55;;;5.03;;
34359;SDS011;20624;55.870;26.506;2023-11-19T13:15:35;8.05;;;4.60;;
34359;SDS011;20624;55.870;26.506;2023-11-19T13:18:03;8.25;;;3.67;;
34359;SDS011;20624;55.870;26.506;2023-11-19T13:20:31;6.93;;;3.88;;
34359;SDS011;20624;55.870;26.506;2023-11-19T13:23:02;8.40;;;4.70;;
34359;SDS011;20624;55.870;26.506;2023-11-19T13:25:30;6.43;;;3.90;;
34359;SDS011;20624;55.870;26.506;2023-11-19T13:27:59;13.50;;;5.30;;
34359;SDS011;20624;55.870;26.506;2023-11-19T13:30:27;8.38;;;4.82;;
34359;SDS011;20624;55.870;26.506;2023-11-19T13:32:56;8.80;;;4.32;;
34359;SDS011;20624;55.870;26.506;2023-11-19T13:35:24;14.07;;;5.75;;
34359;SDS011;20624;55.870;26.506;2023-11-19T13:40:22;8.48;;;5.00;;
34359;SDS011;20624;55.870;26.506;2023-11-19T13:42:51;12.15;;;4.82;;
34359;SDS011;20624;55.870;26.506;2023-11-19T13:45:19;8.55;;;5.32;;
34359;SDS011;20624;55.870;26.506;2023-11-19T13:47:47;14.35;;;5.68;;
34359;SDS011;20624;55.870;26.506;2023-11-19T13:50:16;7.95;;;4.55;;
34359;SDS011;20624;55.870;26.506;2023-11-19T13:52:44;13.02;;;5.75;;
34359;SDS011;20624;55.870;26.506;2023-11-19T13:55:14;10.57;;;5.28;;
34359;SDS011;20624;55.870;26.506;2023-11-19T13:57:42;12.75;;;5.38;;
34359;SDS011;20624;55.870;26.506;2023-11-19T14:00:10;8.80;;;4.60;;
34359;SDS011;20624;55.870;26.506;2023-11-19T14:02:46;13.52;;;6.03;;
34359;SDS011;20624;55.870;26.506;2023-11-19T14:05:17;11.20;;;6.03;;
34359;SDS011;20624;55.870;26.506;2023-11-19T14:07:55;9.15;;;5.30;;
34359;SDS011;20624;55.870;26.506;2023-11-19T14:10:24;12.63;;;5.68;;
34359;SDS011;20624;55.870;26.506;2023-11-19T14:12:52;14.25;;;5.75;;
34359;SDS011;20624;55.870;26.506;2023-11-19T14:15:20;13.15;;;6.55;;
34359;SDS011;20624;55.870;26.506;2023-11-19T14:17:48;13.88;;;6.45;;
34359;SDS011;20624;55.870;26.506;2023-11-19T14:20:16;12.30;;;5.80;;
34359;SDS011;20624;55.870;26.506;2023-11-19T14:22:44;12.85;;;5.97;;
34359;SDS011;20624;55.870;26.506;2023-11-19T14:25:16;11.02;;;4.85;;
34359;SDS011;20624;55.870;26.506;2023-11-19T14:27:45;15.80;;;5.60;;
34359;SDS011;20624;55.870;26.506;2023-11-19T14:30:13;11.18;;;4.68;;
34359;SDS011;20624;55.870;26.506;2023-11-19T14:32:41;13.93;;;5.53;;
34359;SDS011;20624;55.870;26.506;2023-11-19T14:35:13;11.20;;;5.50;;
34359;SDS011;20624;55.870;26.506;2023-11-19T14:37:41;11.27;;;5.15;;
34359;SDS011;20624;55.870;26.506;2023-11-19T14:40:09;9.00;;;5.60;;
34359;SDS011;20624;55.870;26.506;2023-11-19T14:42:38;14.00;;;5.93;;
34359;SDS011;20624;55.870;26.506;2023-11-19T14:45:06;14.15;;;5.95;;
34359;SDS011;20624;55.870;26.506;2023-11-19T14:47:34;15.60;;;6.15;;
34359;SDS011;20624;55.870;26.506;2023-11-19T14:50:02;10.35;;;5.00;;
34359;SDS011;20624;55.870;26.506;2023-11-19T14:52:30;9.93;;;4.97;;
34359;SDS011;20624;55.870;26.506;2023-11-19T14:54:58;18.58;;;5.78;;
34359;SDS011;20624;55.870;26.506;2023-11-19T14:57:26;18.70;;;6.20;;
34359;SDS011;20624;55.870;26.506;2023-11-19T14:59:55;9.65;;;5.20;;
34359;SDS011;20624;55.870;26.506;2023-11-19T15:02:23;9.68;;;5.25;;
34359;SDS011;20624;55.870;26.506;2023-11-19T15:04:51;9.65;;;5.10;;
34359;SDS011;20624;55.870;26.506;2023-11-19T15:07:19;11.07;;;6.18;;
34359;SDS011;20624;55.870;26.506;2023-11-19T15:09:48;10.85;;;5.82;;
34359;SDS011;20624;55.870;26.506;2023-11-19T15:12:16;8.23;;;4.47;;
34359;SDS011;20624;55.870;26.506;2023-11-19T15:14:44;10.13;;;4.32;;
34359;SDS011;20624;55.870;26.506;2023-11-19T15:17:12;9.27;;;3.25;;